sensor_id;sensor_type;location;lat;lon;timestamp;pressure;altitude;pressure_sealevel;temperature;humidity
50867;BME280;36839;51.946;21.002;2023-02-03T00:01:28;100445.66;;;-0.17;100.00
50867;BME280;36839;51.946;21.002;2023-02-03T00:03:57;100448.98;;;-0.19;100.00
50867;BME280;36839;51.946;21.002;2023-02-03T00:06:31;100450.48;;;-0.21;100.00
50867;BME280;36839;51.946;21.002;2023-02-03T00:09:01;100451.61;;;-0.23;100.00
50867;BME280;36839;51.946;21.002;2023-02-03T00:11:33;100449.55;;;-0.25;100.00
50867;BME280;36839;51.946;21.002;2023-02-03T00:14:00;100447.25;;;-0.25;100.00
50867;BME280;36839;51.946;21.002;2023-02-03T00:16:30;100451.34;;;-0.25;100.00
50867;BME280;36839;51.946;21.002;2023-02-03T00:18:57;100453.88;;;-0.26;100.00
50867;BME280;36839;51.946;21.002;2023-02-03T00:21:25;100449.15;;;-0.28;100.00
50867;BME280;36839;51.946;21.002;2023-02-03T00:23:52;100449.70;;;-0.28;100.00
50867;BME280;36839;51.946;21.002;2023-02-03T00:26:20;100459.39;;;-0.29;100.00
50867;BME280;36839;51.946;21.002;2023-02-03T00:28:49;100466.39;;;-0.28;100.00
50867;BME280;36839;51.946;21.002;2023-02-03T00:31:21;100464.20;;;-0.28;100.00
50867;BME280;36839;51.946;21.002;2023-02-03T00:34:03;100471.09;;;-0.26;100.00
50867;BME280;36839;51.946;21.002;2023-02-03T00:36:30;100464.91;;;-0.25;100.00
50867;BME280;36839;51.946;21.002;2023-02-03T00:38:57;100461.86;;;-0.27;100.00
50867;BME280;36839;51.946;21.002;2023-02-03T00:41:28;100458.22;;;-0.30;100.00
50867;BME280;36839;51.946;21.002;2023-02-03T00:43:57;100458.23;;;-0.30;100.00
50867;BME280;36839;51.946;21.002;2023-02-03T00:46:25;100459.81;;;-0.29;100.00
50867;BME280;36839;51.946;21.002;2023-02-03T00:48:55;100466.80;;;-0.32;100.00
50867;BME280;36839;51.946;21.002;2023-02-03T00:51:22;100467.14;;;-0.31;100.00
50867;BME280;36839;51.946;21.002;2023-02-03T00:53:50;100473.36;;;-0.32;100.00
50867;BME280;36839;51.946;21.002;2023-02-03T00:56:19;100477.61;;;-0.33;100.00
50867;BME280;36839;51.946;21.002;2023-02-03T00:58:49;100477.39;;;-0.34;100.00
50867;BME280;36839;51.946;21.002;2023-02-03T01:01:26;100476.21;;;-0.36;100.00
50867;BME280;36839;51.946;21.002;2023-02-03T01:03:54;100468.91;;;-0.35;100.00
50867;BME280;36839;51.946;21.002;2023-02-03T01:06:32;100468.13;;;-0.38;100.00
50867;BME280;36839;51.946;21.002;2023-02-03T01:09:01;100468.96;;;-0.38;100.00
50867;BME280;36839;51.946;21.002;2023-02-03T01:11:28;100468.88;;;-0.42;100.00
50867;BME280;36839;51.946;21.002;2023-02-03T01:13:56;100473.85;;;-0.41;100.00
50867;BME280;36839;51.946;21.002;2023-02-03T01:16:29;100475.59;;;-0.42;100.00
50867;BME280;36839;51.946;21.002;2023-02-03T01:19:04;100474.58;;;-0.44;100.00
50867;BME280;36839;51.946;21.002;2023-02-03T01:21:34;100472.29;;;-0.43;100.00
50867;BME280;36839;51.946;21.002;2023-02-03T01:24:04;100475.35;;;-0.46;100.00
50867;BME280;36839;51.946;21.002;2023-02-03T01:26:33;100472.70;;;-0.49;100.00
50867;BME280;36839;51.946;21.002;2023-02-03T01:29:02;100477.69;;;-0.49;100.00
50867;BME280;36839;51.946;21.002;2023-02-03T01:31:36;100474.79;;;-0.50;100.00
50867;BME280;36839;51.946;21.002;2023-02-03T01:34:12;100466.70;;;-0.49;100.00
50867;BME280;36839;51.946;21.002;2023-02-03T01:36:39;100466.28;;;-0.49;100.00
50867;BME280;36839;51.946;21.002;2023-02-03T01:39:09;100461.69;;;-0.49;100.00
50867;BME280;36839;51.946;21.002;2023-02-03T01:41:37;100463.50;;;-0.51;100.00
50867;BME280;36839;51.946;21.002;2023-02-03T01:44:45;100457.14;;;-0.55;100.00
50867;BME280;36839;51.946;21.002;2023-02-03T01:47:53;100463.20;;;-0.61;100.00
50867;BME280;36839;51.946;21.002;2023-02-03T01:50:30;100458.09;;;-0.64;100.00
50867;BME280;36839;51.946;21.002;2023-02-03T01:53:02;100459.70;;;-0.66;100.00
50867;BME280;36839;51.946;21.002;2023-02-03T01:55:41;100461.54;;;-0.67;100.00
50867;BME280;36839;51.946;21.002;2023-02-03T01:58:20;100457.55;;;-0.70;100.00
50867;BME280;36839;51.946;21.002;2023-02-03T02:00:52;100452.93;;;-0.73;100.00
50867;BME280;36839;51.946;21.002;2023-02-03T02:03:26;100456.54;;;-0.72;100.00
50867;BME280;36839;51.946;21.002;2023-02-03T02:06:04;100460.33;;;-0.78;100.00
50867;BME280;36839;51.946;21.002;2023-02-03T02:08:33;100460.73;;;-0.79;100.00
50867;BME280;36839;51.946;21.002;2023-02-03T02:11:03;100460.59;;;-0.82;100.00
50867;BME280;36839;51.946;21.002;2023-02-03T02:13:38;100459.11;;;-0.84;100.00
50867;BME280;36839;51.946;21.002;2023-02-03T02:33:08;100447.08;;;-1.03;100.00
50867;BME280;36839;51.946;21.002;2023-02-03T02:35:43;100445.05;;;-1.06;100.00
50867;BME280;36839;51.946;21.002;2023-02-03T02:38:43;100450.09;;;-1.07;100.00
50867;BME280;36839;51.946;21.002;2023-02-03T02:41:33;100452.80;;;-1.07;100.00
50867;BME280;36839;51.946;21.002;2023-02-03T02:44:17;100452.59;;;-1.08;100.00
50867;BME280;36839;51.946;21.002;2023-02-03T02:46:52;100444.61;;;-1.08;100.00
50867;BME280;36839;51.946;21.002;2023-02-03T02:49:43;100433.69;;;-1.07;100.00
50867;BME280;36839;51.946;21.002;2023-02-03T02:52:17;100431.45;;;-1.06;100.00
50867;BME280;36839;51.946;21.002;2023-02-03T02:54:50;100431.11;;;-1.07;100.00
50867;BME280;36839;51.946;21.002;2023-02-03T02:57:20;100433.86;;;-1.07;100.00
50867;BME280;36839;51.946;21.002;2023-02-03T02:59:54;100439.34;;;-1.07;100.00
50867;BME280;36839;51.946;21.002;2023-02-03T03:02:21;100432.17;;;-1.06;100.00
50867;BME280;36839;51.946;21.002;2023-02-03T03:04:49;100429.11;;;-1.07;100.00
50867;BME280;36839;51.946;21.002;2023-02-03T03:07:23;100430.25;;;-1.06;100.00
50867;BME280;36839;51.946;21.002;2023-02-03T03:10:13;100431.27;;;-1.07;100.00
50867;BME280;36839;51.946;21.002;2023-02-03T03:12:47;100433.29;;;-1.11;100.00
50867;BME280;36839;51.946;21.002;2023-02-03T03:15:25;100439.63;;;-1.13;100.00
50867;BME280;36839;51.946;21.002;2023-02-03T03:17:59;100443.79;;;-1.18;100.00
50867;BME280;36839;51.946;21.002;2023-02-03T03:20:29;100440.61;;;-1.24;100.00
50867;BME280;36839;51.946;21.002;2023-02-03T03:23:04;100440.57;;;-1.27;100.00
50867;BME280;36839;51.946;21.002;2023-02-03T03:25:44;100440.44;;;-1.31;100.00
50867;BME280;36839;51.946;21.002;2023-02-03T03:28:16;100441.44;;;-1.34;100.00
50867;BME280;36839;51.946;21.002;2023-02-03T03:30:49;100442.85;;;-1.38;100.00
50867;BME280;36839;51.946;21.002;2023-02-03T03:33:17;100444.16;;;-1.41;100.00
50867;BME280;36839;51.946;21.002;2023-02-03T03:35:51;100438.13;;;-1.42;100.00
50867;BME280;36839;51.946;21.002;2023-02-03T03:38:26;100430.46;;;-1.43;100.00
50867;BME280;36839;51.946;21.002;2023-02-03T03:41:04;100431.17;;;-1.47;100.00
50867;BME280;36839;51.946;21.002;2023-02-03T03:43:38;100424.23;;;-1.49;100.00
50867;BME280;36839;51.946;21.002;2023-02-03T03:46:20;100421.60;;;-1.50;100.00
50867;BME280;36839;51.946;21.002;2023-02-03T03:48:59;100413.39;;;-1.53;100.00
50867;BME280;36839;51.946;21.002;2023-02-03T03:51:43;100416.45;;;-1.54;100.00
50867;BME280;36839;51.946;21.002;2023-02-03T03:54:17;100416.70;;;-1.54;100.00
50867;BME280;36839;51.946;21.002;2023-02-03T03:57:00;100412.41;;;-1.54;100.00
50867;BME280;36839;51.946;21.002;2023-02-03T03:59:33;100414.91;;;-1.53;100.00
50867;BME280;36839;51.946;21.002;2023-02-03T04:02:03;100415.20;;;-1.54;100.00
50867;BME280;36839;51.946;21.002;2023-02-03T04:04:32;100419.15;;;-1.54;100.00
50867;BME280;36839;51.946;21.002;2023-02-03T04:07:01;100421.49;;;-1.54;100.00
50867;BME280;36839;51.946;21.002;2023-02-03T04:09:30;100418.95;;;-1.54;100.00
50867;BME280;36839;51.946;21.002;2023-02-03T04:11:57;100422.00;;;-1.53;100.00
50867;BME280;36839;51.946;21.002;2023-02-03T04:14:35;100418.25;;;-1.51;100.00
50867;BME280;36839;51.946;21.002;2023-02-03T04:17:05;100418.46;;;-1.51;100.00
50867;BME280;36839;51.946;21.002;2023-02-03T04:19:33;100420.17;;;-1.50;100.00
50867;BME280;36839;51.946;21.002;2023-02-03T04:21:59;100425.40;;;-1.52;100.00
50867;BME280;36839;51.946;21.002;2023-02-03T04:24:27;100426.27;;;-1.56;100.00
50867;BME280;36839;51.946;21.002;2023-02-03T04:26:54;100423.92;;;-1.56;100.00
50867;BME280;36839;51.946;21.002;2023-02-03T04:29:22;100421.39;;;-1.56;100.00
50867;BME280;36839;51.946;21.002;2023-02-03T04:31:49;100418.63;;;-1.57;100.00
50867;BME280;36839;51.946;21.002;2023-02-03T04:34:16;100422.44;;;-1.58;100.00
50867;BME280;36839;51.946;21.002;2023-02-03T04:36:43;100419.38;;;-1.60;100.00
50867;BME280;36839;51.946;21.002;2023-02-03T04:39:11;100430.23;;;-1.62;100.00
50867;BME280;36839;51.946;21.002;2023-02-03T04:41:39;100433.63;;;-1.64;100.00
50867;BME280;36839;51.946;21.002;2023-02-03T04:44:23;100434.81;;;-1.64;100.00
50867;BME280;36839;51.946;21.002;2023-02-03T04:46:51;100431.91;;;-1.62;100.00
50867;BME280;36839;51.946;21.002;2023-02-03T04:49:21;100431.11;;;-1.63;100.00
50867;BME280;36839;51.946;21.002;2023-02-03T04:51:48;100427.47;;;-1.64;100.00
50867;BME280;36839;51.946;21.002;2023-02-03T04:54:15;100426.93;;;-1.64;100.00
50867;BME280;36839;51.946;21.002;2023-02-03T04:56:42;100421.13;;;-1.65;100.00
50867;BME280;36839;51.946;21.002;2023-02-03T04:59:11;100422.85;;;-1.68;100.00
50867;BME280;36839;51.946;21.002;2023-02-03T05:01:45;100417.16;;;-1.68;100.00
50867;BME280;36839;51.946;21.002;2023-02-03T05:04:12;100410.05;;;-1.69;100.00
50867;BME280;36839;51.946;21.002;2023-02-03T05:06:40;100410.97;;;-1.68;100.00
50867;BME280;36839;51.946;21.002;2023-02-03T05:09:08;100405.58;;;-1.67;100.00
50867;BME280;36839;51.946;21.002;2023-02-03T05:11:35;100401.57;;;-1.66;100.00
50867;BME280;36839;51.946;21.002;2023-02-03T05:14:03;100397.19;;;-1.68;100.00
50867;BME280;36839;51.946;21.002;2023-02-03T05:16:30;100392.70;;;-1.69;100.00
50867;BME280;36839;51.946;21.002;2023-02-03T05:18:57;100389.05;;;-1.72;100.00
50867;BME280;36839;51.946;21.002;2023-02-03T05:21:26;100393.09;;;-1.74;100.00
50867;BME280;36839;51.946;21.002;2023-02-03T05:23:53;100397.03;;;-1.75;100.00
50867;BME280;36839;51.946;21.002;2023-02-03T05:26:23;100396.10;;;-1.77;100.00
50867;BME280;36839;51.946;21.002;2023-02-03T05:28:50;100398.34;;;-1.77;100.00
50867;BME280;36839;51.946;21.002;2023-02-03T05:31:17;100395.59;;;-1.77;100.00
50867;BME280;36839;51.946;21.002;2023-02-03T05:33:44;100394.34;;;-1.77;100.00
50867;BME280;36839;51.946;21.002;2023-02-03T05:36:11;100392.77;;;-1.79;100.00
50867;BME280;36839;51.946;21.002;2023-02-03T05:38:40;100394.20;;;-1.82;100.00
50867;BME280;36839;51.946;21.002;2023-02-03T05:41:11;100390.17;;;-1.86;100.00
50867;BME280;36839;51.946;21.002;2023-02-03T05:43:57;100384.77;;;-1.88;100.00
50867;BME280;36839;51.946;21.002;2023-02-03T05:46:24;100379.16;;;-1.91;100.00
50867;BME280;36839;51.946;21.002;2023-02-03T05:48:51;100373.86;;;-1.92;100.00
50867;BME280;36839;51.946;21.002;2023-02-03T05:51:18;100376.27;;;-1.96;100.00
50867;BME280;36839;51.946;21.002;2023-02-03T05:53:45;100375.83;;;-1.98;100.00
50867;BME280;36839;51.946;21.002;2023-02-03T05:56:12;100374.55;;;-2.01;100.00
50867;BME280;36839;51.946;21.002;2023-02-03T05:58:40;100372.67;;;-2.05;100.00
50867;BME280;36839;51.946;21.002;2023-02-03T06:01:07;100372.08;;;-2.09;100.00
50867;BME280;36839;51.946;21.002;2023-02-03T06:03:34;100375.27;;;-2.13;100.00
50867;BME280;36839;51.946;21.002;2023-02-03T06:06:01;100372.09;;;-2.16;100.00
50867;BME280;36839;51.946;21.002;2023-02-03T06:08:29;100371.02;;;-2.20;100.00
50867;BME280;36839;51.946;21.002;2023-02-03T06:10:57;100374.20;;;-2.22;100.00
50867;BME280;36839;51.946;21.002;2023-02-03T06:13:27;100371.05;;;-2.24;100.00
50867;BME280;36839;51.946;21.002;2023-02-03T06:15:59;100373.50;;;-2.27;100.00
50867;BME280;36839;51.946;21.002;2023-02-03T06:18:27;100372.23;;;-2.28;100.00
50867;BME280;36839;51.946;21.002;2023-02-03T06:20:54;100372.14;;;-2.31;100.00
50867;BME280;36839;51.946;21.002;2023-02-03T06:23:23;100367.74;;;-2.33;100.00
50867;BME280;36839;51.946;21.002;2023-02-03T06:25:52;100368.55;;;-2.35;100.00
50867;BME280;36839;51.946;21.002;2023-02-03T06:28:19;100369.23;;;-2.36;100.00
50867;BME280;36839;51.946;21.002;2023-02-03T06:30:50;100362.40;;;-2.38;100.00
50867;BME280;36839;51.946;21.002;2023-02-03T06:33:19;100358.70;;;-2.39;100.00
50867;BME280;36839;51.946;21.002;2023-02-03T06:35:47;100352.44;;;-2.39;100.00
50867;BME280;36839;51.946;21.002;2023-02-03T06:38:15;100349.80;;;-2.38;100.00
50867;BME280;36839;51.946;21.002;2023-02-03T06:40:46;100340.11;;;-2.33;100.00
50867;BME280;36839;51.946;21.002;2023-02-03T06:43:14;100331.98;;;-2.31;100.00
50867;BME280;36839;51.946;21.002;2023-02-03T06:45:46;100321.40;;;-2.32;100.00
50867;BME280;36839;51.946;21.002;2023-02-03T06:48:22;100318.41;;;-2.31;100.00
50867;BME280;36839;51.946;21.002;2023-02-03T06:50:59;100313.73;;;-2.29;100.00
50867;BME280;36839;51.946;21.002;2023-02-03T06:53:29;100311.88;;;-2.27;100.00
50867;BME280;36839;51.946;21.002;2023-02-03T06:55:56;100309.07;;;-2.25;100.00
50867;BME280;36839;51.946;21.002;2023-02-03T06:58:23;100302.61;;;-2.22;100.00
50867;BME280;36839;51.946;21.002;2023-02-03T07:00:50;100297.27;;;-2.20;100.00
50867;BME280;36839;51.946;21.002;2023-02-03T07:03:17;100296.70;;;-2.16;100.00
50867;BME280;36839;51.946;21.002;2023-02-03T07:05:44;100291.55;;;-2.13;100.00
50867;BME280;36839;51.946;21.002;2023-02-03T07:08:11;100287.70;;;-2.08;100.00
50867;BME280;36839;51.946;21.002;2023-02-03T07:10:39;100285.35;;;-2.04;100.00
50867;BME280;36839;51.946;21.002;2023-02-03T07:13:07;100281.39;;;-2.01;100.00
50867;BME280;36839;51.946;21.002;2023-02-03T07:15:37;100281.88;;;-1.95;100.00
50867;BME280;36839;51.946;21.002;2023-02-03T07:18:07;100284.92;;;-1.91;100.00
50867;BME280;36839;51.946;21.002;2023-02-03T07:20:37;100279.30;;;-1.86;100.00
50867;BME280;36839;51.946;21.002;2023-02-03T07:23:07;100274.30;;;-1.81;100.00
50867;BME280;36839;51.946;21.002;2023-02-03T07:25:34;100266.19;;;-1.77;100.00
50867;BME280;36839;51.946;21.002;2023-02-03T07:28:01;100265.13;;;-1.73;100.00
50867;BME280;36839;51.946;21.002;2023-02-03T07:30:32;100262.77;;;-1.69;100.00
50867;BME280;36839;51.946;21.002;2023-02-03T07:33:02;100256.56;;;-1.65;100.00
50867;BME280;36839;51.946;21.002;2023-02-03T07:35:34;100258.27;;;-1.60;100.00
50867;BME280;36839;51.946;21.002;2023-02-03T07:38:03;100255.98;;;-1.54;100.00
50867;BME280;36839;51.946;21.002;2023-02-03T07:40:31;100249.63;;;-1.50;100.00
50867;BME280;36839;51.946;21.002;2023-02-03T07:42:58;100249.29;;;-1.43;100.00
50867;BME280;36839;51.946;21.002;2023-02-03T07:45:28;100246.17;;;-1.37;100.00
50867;BME280;36839;51.946;21.002;2023-02-03T07:47:58;100236.11;;;-1.31;100.00
50867;BME280;36839;51.946;21.002;2023-02-03T07:50:28;100225.45;;;-1.24;100.00
50867;BME280;36839;51.946;21.002;2023-02-03T07:52:58;100217.27;;;-1.18;100.00
50867;BME280;36839;51.946;21.002;2023-02-03T07:55:26;100211.10;;;-1.14;100.00
50867;BME280;36839;51.946;21.002;2023-02-03T07:58:04;100209.98;;;-1.09;100.00
50867;BME280;36839;51.946;21.002;2023-02-03T08:00:36;100205.39;;;-1.04;100.00
50867;BME280;36839;51.946;21.002;2023-02-03T08:03:05;100202.63;;;-1.00;100.00
50867;BME280;36839;51.946;21.002;2023-02-03T08:05:33;100194.96;;;-0.98;100.00
50867;BME280;36839;51.946;21.002;2023-02-03T08:08:00;100195.09;;;-0.94;100.00
50867;BME280;36839;51.946;21.002;2023-02-03T08:10:32;100186.11;;;-0.89;100.00
50867;BME280;36839;51.946;21.002;2023-02-03T08:13:01;100182.36;;;-0.85;100.00
50867;BME280;36839;51.946;21.002;2023-02-03T08:15:29;100176.51;;;-0.79;100.00
50867;BME280;36839;51.946;21.002;2023-02-03T08:17:57;100170.51;;;-0.73;100.00
50867;BME280;36839;51.946;21.002;2023-02-03T08:20:25;100168.40;;;-0.68;100.00
50867;BME280;36839;51.946;21.002;2023-02-03T08:22:52;100170.38;;;-0.61;100.00
50867;BME280;36839;51.946;21.002;2023-02-03T08:25:20;100168.42;;;-0.54;100.00
50867;BME280;36839;51.946;21.002;2023-02-03T08:27:47;100166.38;;;-0.53;100.00
50867;BME280;36839;51.946;21.002;2023-02-03T08:30:14;100168.37;;;-0.48;100.00
50867;BME280;36839;51.946;21.002;2023-02-03T08:32:47;100167.77;;;-0.43;100.00
50867;BME280;36839;51.946;21.002;2023-02-03T08:35:16;100164.56;;;-0.42;100.00
50867;BME280;36839;51.946;21.002;2023-02-03T08:37:44;100162.93;;;-0.43;100.00
50867;BME280;36839;51.946;21.002;2023-02-03T08:40:14;100165.14;;;-0.42;100.00
50867;BME280;36839;51.946;21.002;2023-02-03T08:43:07;100157.75;;;-0.35;100.00
50867;BME280;36839;51.946;21.002;2023-02-03T08:45:39;100155.54;;;-0.35;100.00
50867;BME280;36839;51.946;21.002;2023-02-03T08:48:07;100150.88;;;-0.34;100.00
50867;BME280;36839;51.946;21.002;2023-02-03T08:50:39;100146.32;;;-0.33;100.00
50867;BME280;36839;51.946;21.002;2023-02-03T08:53:08;100147.96;;;-0.30;100.00
50867;BME280;36839;51.946;21.002;2023-02-03T08:55:39;100141.82;;;-0.23;100.00
50867;BME280;36839;51.946;21.002;2023-02-03T08:58:07;100137.75;;;-0.10;100.00
50867;BME280;36839;51.946;21.002;2023-02-03T09:00:34;100133.77;;;0.01;100.00
50867;BME280;36839;51.946;21.002;2023-02-03T09:03:04;100123.14;;;0.12;100.00
50867;BME280;36839;51.946;21.002;2023-02-03T09:05:34;100107.55;;;0.24;100.00
50867;BME280;36839;51.946;21.002;2023-02-03T09:08:04;100099.13;;;0.33;100.00
50867;BME280;36839;51.946;21.002;2023-02-03T09:10:31;100094.40;;;0.35;100.00
50867;BME280;36839;51.946;21.002;2023-02-03T09:13:08;100088.63;;;0.36;100.00
50867;BME280;36839;51.946;21.002;2023-02-03T09:15:35;100087.59;;;0.39;100.00
50867;BME280;36839;51.946;21.002;2023-02-03T09:18:03;100087.48;;;0.38;100.00
50867;BME280;36839;51.946;21.002;2023-02-03T09:20:31;100089.20;;;0.36;100.00
50867;BME280;36839;51.946;21.002;2023-02-03T09:23:08;100088.59;;;0.34;100.00
50867;BME280;36839;51.946;21.002;2023-02-03T09:25:36;100086.84;;;0.48;100.00
50867;BME280;36839;51.946;21.002;2023-02-03T09:28:06;100085.92;;;0.66;100.00
50867;BME280;36839;51.946;21.002;2023-02-03T09:30:34;100083.71;;;0.68;100.00
50867;BME280;36839;51.946;21.002;2023-02-03T09:33:01;100074.30;;;0.63;100.00
50867;BME280;36839;51.946;21.002;2023-02-03T09:35:29;100064.49;;;0.61;100.00
50867;BME280;36839;51.946;21.002;2023-02-03T09:37:57;100059.30;;;0.55;100.00
50867;BME280;36839;51.946;21.002;2023-02-03T09:40:29;100052.20;;;0.51;100.00
50867;BME280;36839;51.946;21.002;2023-02-03T09:43:15;100045.63;;;0.50;100.00
50867;BME280;36839;51.946;21.002;2023-02-03T09:45:49;100036.23;;;0.49;100.00
50867;BME280;36839;51.946;21.002;2023-02-03T09:48:23;100032.94;;;0.49;100.00
50867;BME280;36839;51.946;21.002;2023-02-03T09:50:59;100021.85;;;0.49;100.00
50867;BME280;36839;51.946;21.002;2023-02-03T09:53:32;100020.22;;;0.52;100.00
50867;BME280;36839;51.946;21.002;2023-02-03T09:56:02;100014.66;;;0.58;100.00
50867;BME280;36839;51.946;21.002;2023-02-03T09:58:32;100005.11;;;0.66;100.00
50867;BME280;36839;51.946;21.002;2023-02-03T10:01:03;99996.81;;;0.73;100.00
50867;BME280;36839;51.946;21.002;2023-02-03T10:03:53;99986.60;;;0.83;100.00
50867;BME280;36839;51.946;21.002;2023-02-03T10:06:39;99977.41;;;0.90;100.00
50867;BME280;36839;51.946;21.002;2023-02-03T10:10:12;99977.42;;;0.89;100.00
50867;BME280;36839;51.946;21.002;2023-02-03T10:17:56;99961.02;;;1.06;100.00
50867;BME280;36839;51.946;21.002;2023-02-03T10:21:03;99949.88;;;1.43;100.00
50867;BME280;36839;51.946;21.002;2023-02-03T10:23:53;99940.82;;;1.38;100.00
50867;BME280;36839;51.946;21.002;2023-02-03T10:26:27;99934.93;;;1.27;100.00
50867;BME280;36839;51.946;21.002;2023-02-03T10:29:35;99925.98;;;1.18;100.00
50867;BME280;36839;51.946;21.002;2023-02-03T10:32:19;99917.70;;;1.07;100.00
50867;BME280;36839;51.946;21.002;2023-02-03T10:34:47;99914.12;;;1.04;100.00
50867;BME280;36839;51.946;21.002;2023-02-03T10:39:48;99905.66;;;1.05;100.00
50867;BME280;36839;51.946;21.002;2023-02-03T10:42:16;99898.84;;;1.02;100.00
50867;BME280;36839;51.946;21.002;2023-02-03T10:44:57;99883.65;;;1.03;100.00
50867;BME280;36839;51.946;21.002;2023-02-03T10:47:55;99873.33;;;1.09;100.00
50867;BME280;36839;51.946;21.002;2023-02-03T10:50:26;99864.91;;;1.10;100.00
50867;BME280;36839;51.946;21.002;2023-02-03T10:55:49;99844.73;;;1.12;100.00
50867;BME280;36839;51.946;21.002;2023-02-03T10:58:27;99834.86;;;1.11;100.00
50867;BME280;36839;51.946;21.002;2023-02-03T11:03:35;99813.46;;;1.01;100.00
50867;BME280;36839;51.946;21.002;2023-02-03T11:06:06;99805.41;;;1.06;100.00
50867;BME280;36839;51.946;21.002;2023-02-03T11:08:36;99792.38;;;1.09;100.00
50867;BME280;36839;51.946;21.002;2023-02-03T11:11:21;99779.64;;;1.10;100.00
50867;BME280;36839;51.946;21.002;2023-02-03T11:14:09;99765.42;;;1.10;100.00
50867;BME280;36839;51.946;21.002;2023-02-03T11:16:40;99752.55;;;1.13;100.00
50867;BME280;36839;51.946;21.002;2023-02-03T11:19:20;99744.41;;;1.18;100.00
50867;BME280;36839;51.946;21.002;2023-02-03T11:21:52;99732.77;;;1.12;100.00
50867;BME280;36839;51.946;21.002;2023-02-03T11:24:40;99721.06;;;1.01;100.00
50867;BME280;36839;51.946;21.002;2023-02-03T11:27:15;99714.70;;;0.93;100.00
50867;BME280;36839;51.946;21.002;2023-02-03T11:30:10;99709.98;;;0.92;100.00
50867;BME280;36839;51.946;21.002;2023-02-03T11:32:41;99706.02;;;0.90;100.00
50867;BME280;36839;51.946;21.002;2023-02-03T11:38:28;99694.61;;;0.91;100.00
50867;BME280;36839;51.946;21.002;2023-02-03T11:40:59;99692.16;;;0.94;100.00
50867;BME280;36839;51.946;21.002;2023-02-03T11:43:28;99673.66;;;0.94;100.00
50867;BME280;36839;51.946;21.002;2023-02-03T11:46:05;99662.63;;;0.95;100.00
50867;BME280;36839;51.946;21.002;2023-02-03T11:48:38;99662.78;;;1.00;100.00
50867;BME280;36839;51.946;21.002;2023-02-03T11:52:20;99651.80;;;0.98;100.00
50867;BME280;36839;51.946;21.002;2023-02-03T11:54:29;99641.02;;;1.01;100.00
50867;BME280;36839;51.946;21.002;2023-02-03T12:00:21;99612.87;;;1.05;100.00
50867;BME280;36839;51.946;21.002;2023-02-03T12:06:15;99589.16;;;1.12;100.00
50867;BME280;36839;51.946;21.002;2023-02-03T12:30:54;99552.41;;;1.22;100.00
50867;BME280;36839;51.946;21.002;2023-02-03T12:33:47;99546.61;;;1.21;100.00
50867;BME280;36839;51.946;21.002;2023-02-03T12:36:29;99542.55;;;1.18;100.00
50867;BME280;36839;51.946;21.002;2023-02-03T12:45:13;99521.52;;;1.24;100.00
50867;BME280;36839;51.946;21.002;2023-02-03T12:48:03;99510.97;;;1.24;100.00
50867;BME280;36839;51.946;21.002;2023-02-03T12:50:41;99505.73;;;1.22;100.00
50867;BME280;36839;51.946;21.002;2023-02-03T12:56:16;99491.31;;;1.16;100.00
50867;BME280;36839;51.946;21.002;2023-02-03T13:01:23;99468.15;;;0.95;100.00
50867;BME280;36839;51.946;21.002;2023-02-03T13:06:53;99434.44;;;0.83;100.00
50867;BME280;36839;51.946;21.002;2023-02-03T13:09:58;99423.64;;;0.78;100.00
50867;BME280;36839;51.946;21.002;2023-02-03T13:12:44;99410.58;;;0.69;100.00
50867;BME280;36839;51.946;21.002;2023-02-03T13:15:45;99407.05;;;0.58;100.00
50867;BME280;36839;51.946;21.002;2023-02-03T13:18:43;99400.94;;;0.47;100.00
50867;BME280;36839;51.946;21.002;2023-02-03T13:21:14;99385.52;;;0.35;100.00
50867;BME280;36839;51.946;21.002;2023-02-03T13:23:42;99376.21;;;0.25;100.00
50867;BME280;36839;51.946;21.002;2023-02-03T13:26:48;99366.55;;;0.22;100.00
50867;BME280;36839;51.946;21.002;2023-02-03T13:36:07;99341.35;;;-0.01;100.00
50867;BME280;36839;51.946;21.002;2023-02-03T13:39:03;99329.58;;;-0.12;100.00
50867;BME280;36839;51.946;21.002;2023-02-03T13:41:47;99317.59;;;-0.24;100.00
50867;BME280;36839;51.946;21.002;2023-02-03T13:44:27;99318.20;;;-0.36;100.00
50867;BME280;36839;51.946;21.002;2023-02-03T13:46:55;99309.42;;;-0.42;100.00
50867;BME280;36839;51.946;21.002;2023-02-03T13:49:24;99298.51;;;-0.50;100.00
50867;BME280;36839;51.946;21.002;2023-02-03T13:52:01;99294.98;;;-0.54;100.00
50867;BME280;36839;51.946;21.002;2023-02-03T13:54:37;99287.42;;;-0.56;100.00
50867;BME280;36839;51.946;21.002;2023-02-03T13:57:36;99278.52;;;-0.61;100.00
50867;BME280;36839;51.946;21.002;2023-02-03T14:05:52;99263.33;;;-0.79;100.00
50867;BME280;36839;51.946;21.002;2023-02-03T14:20:03;99232.59;;;-0.94;100.00
50867;BME280;36839;51.946;21.002;2023-02-03T14:22:31;99222.59;;;-0.94;100.00
50867;BME280;36839;51.946;21.002;2023-02-03T14:25:04;99216.09;;;-0.95;100.00
50867;BME280;36839;51.946;21.002;2023-02-03T14:27:36;99206.38;;;-0.98;100.00
50867;BME280;36839;51.946;21.002;2023-02-03T14:30:10;99202.63;;;-0.98;100.00
50867;BME280;36839;51.946;21.002;2023-02-03T14:33:01;99196.70;;;-0.97;100.00
50867;BME280;36839;51.946;21.002;2023-02-03T14:35:32;99190.05;;;-1.00;100.00
50867;BME280;36839;51.946;21.002;2023-02-03T14:38:01;99186.70;;;-1.01;100.00
50867;BME280;36839;51.946;21.002;2023-02-03T14:43:50;99172.04;;;-1.03;100.00
50867;BME280;36839;51.946;21.002;2023-02-03T14:46:35;99168.84;;;-1.03;100.00
50867;BME280;36839;51.946;21.002;2023-02-03T14:49:22;99160.65;;;-1.02;100.00
50867;BME280;36839;51.946;21.002;2023-02-03T14:57:57;99142.43;;;-1.08;100.00